Time;durP1;ratioP1;P1;durP2;ratioP2;P2;SDS_P1;SDS_P2;PMS_P1;PMS_P2;Temp;Humidity;BMP_temperature;BMP_pressure;BME280_temperature;BME280_humidity;BME280_pressure;Samples;Min_cycle;Max_cycle;Signal;HPM_P1;HPM_P2
2022/08/16 00:00:10;;;;;;;10.55;6.57;;;;;;;19.47;74.13;100414.84;6165109;23;20013;-87
2022/08/16 00:02:36;;;;;;;11.15;7.00;;;;;;;19.41;75.17;100416.84;6191163;23;20009;-86
2022/08/16 00:05:05;;;;;;;7.73;6.83;;;;;;;19.36;74.75;100416.06;6191129;23;20004;-86
2022/08/16 00:07:31;;;;;;;9.88;7.28;;;;;;;19.31;74.50;100416.91;6191042;23;20027;-86
2022/08/16 00:09:57;;;;;;;12.68;6.82;;;;;;;19.33;75.79;100416.63;6191656;23;20005;-86
2022/08/16 00:12:24;;;;;;;8.73;6.72;;;;;;;19.27;75.39;100416.66;6190779;23;20415;-87
2022/08/16 00:14:50;;;;;;;9.20;6.57;;;;;;;19.24;76.21;100416.41;6191705;23;20015;-86
2022/08/16 00:17:15;;;;;;;8.60;7.25;;;;;;;19.20;76.88;100413.38;6166434;23;20016;-86
2022/08/16 00:19:41;;;;;;;11.27;7.47;;;;;;;19.20;77.47;100409.81;6141402;23;20012;-86
2022/08/16 00:22:06;;;;;;;8.27;7.07;;;;;;;19.18;76.39;100426.59;6217473;23;20005;-87
2022/08/16 00:24:33;;;;;;;10.83;8.10;;;;;;;19.13;75.70;100432.13;6166553;23;20013;-86
2022/08/16 00:27:02;;;;;;;11.27;7.88;;;;;;;19.09;75.65;100426.38;6167180;23;20015;-87
2022/08/16 00:29:31;;;;;;;11.50;8.35;;;;;;;19.07;76.08;100434.09;6166302;23;20411;-87
2022/08/16 00:31:57;;;;;;;10.17;7.60;;;;;;;19.03;76.34;100441.25;6190633;23;20016;-87
2022/08/16 00:34:23;;;;;;;8.73;7.20;;;;;;;18.99;76.89;100437.41;6217582;23;20011;-86
2022/08/16 00:36:49;;;;;;;8.48;7.55;;;;;;;18.96;77.27;100439.91;6166919;23;20005;-86
2022/08/16 00:39:17;;;;;;;13.40;7.20;;;;;;;18.91;77.38;100438.84;6166511;23;20363;-86
2022/08/16 00:41:49;;;;;;;9.18;7.18;;;;;;;18.90;77.79;100439.13;6166094;23;20013;-86
2022/08/16 00:44:17;;;;;;;11.25;7.65;;;;;;;18.89;78.35;100432.78;6190949;23;20004;-87
2022/08/16 00:46:50;;;;;;;9.40;7.90;;;;;;;18.87;78.57;100443.25;6217572;23;20103;-86
2022/08/16 00:49:16;;;;;;;8.32;7.53;;;;;;;18.86;79.35;100440.78;6190559;23;20067;-86
2022/08/16 00:51:43;;;;;;;12.87;7.70;;;;;;;18.84;79.30;100445.69;6191258;23;20000;-86
2022/08/16 00:54:10;;;;;;;11.60;7.80;;;;;;;18.85;80.55;100448.19;6191094;23;20012;-87
2022/08/16 00:56:39;;;;;;;19.40;8.32;;;;;;;18.83;80.20;100444.06;6191498;23;20062;-87
2022/08/16 00:59:07;;;;;;;16.08;9.20;;;;;;;18.79;79.22;100445.72;6190657;23;20008;-87
2022/08/16 01:01:33;;;;;;;13.07;8.80;;;;;;;18.74;79.43;100441.06;6190845;23;20139;-87
2022/08/16 01:03:59;;;;;;;15.13;8.75;;;;;;;18.72;79.80;100446.84;6191034;23;20091;-87
2022/08/16 01:06:27;;;;;;;15.25;9.25;;;;;;;18.72;80.32;100446.00;6191050;23;20485;-87
2022/08/16 01:08:55;;;;;;;13.33;9.07;;;;;;;18.70;80.51;100449.03;6190765;23;20005;-87
2022/08/16 01:11:26;;;;;;;16.23;9.15;;;;;;;18.66;79.94;100450.72;6190660;23;20009;-87
2022/08/16 01:13:58;;;;;;;17.90;9.02;;;;;;;18.63;80.49;100445.78;6190579;23;20027;-87
2022/08/16 01:16:28;;;;;;;12.73;9.07;;;;;;;18.60;80.63;100443.56;6191108;23;20012;-86
2022/08/16 01:19:00;;;;;;;13.43;8.98;;;;;;;18.56;80.62;100448.81;6190586;23;20000;-86
2022/08/16 01:21:40;;;;;;;16.57;9.30;;;;;;;18.54;80.84;100447.44;6190335;23;20017;-86
2022/08/16 01:24:15;;;;;;;15.93;9.55;;;;;;;18.49;80.90;100440.03;6190941;23;20015;-87
2022/08/16 01:26:43;;;;;;;14.52;9.38;;;;;;;18.43;81.84;100452.13;6191177;23;20012;-87
2022/08/16 01:29:15;;;;;;;12.07;9.50;;;;;;;18.41;82.09;100452.41;6190759;23;20001;-87
2022/08/16 01:31:40;;;;;;;18.52;10.38;;;;;;;18.35;82.39;100444.44;6189918;23;20084;-87
2022/08/16 01:34:07;;;;;;;13.40;9.87;;;;;;;18.32;82.66;100443.09;6217260;23;20444;-87
2022/08/16 01:36:34;;;;;;;16.02;10.32;;;;;;;18.30;82.94;100445.28;6165780;23;20008;-86
2022/08/16 01:39:08;;;;;;;15.73;10.50;;;;;;;18.30;82.85;100450.78;6190743;23;20008;-87
2022/08/16 01:41:33;;;;;;;14.43;10.43;;;;;;;18.26;83.39;100437.88;6165744;23;20096;-86
2022/08/16 01:43:59;;;;;;;14.63;10.87;;;;;;;18.21;83.26;100447.75;6190096;23;20036;-87
2022/08/16 01:46:28;;;;;;;15.53;12.03;;;;;;;18.16;84.17;100449.69;6216762;23;20342;-86
2022/08/16 01:49:01;;;;;;;15.40;11.45;;;;;;;18.05;84.27;100444.22;6217684;23;20000;-86
2022/08/16 01:51:28;;;;;;;16.40;11.40;;;;;;;18.00;84.80;100451.63;6190706;23;20012;-86
2022/08/16 01:53:54;;;;;;;16.13;10.88;;;;;;;17.95;85.05;100444.22;6190646;23;20008;-86
2022/08/16 01:56:19;;;;;;;14.70;11.57;;;;;;;17.91;85.16;100448.63;6191160;23;20417;-86
2022/08/16 01:58:45;;;;;;;14.18;11.02;;;;;;;17.90;85.13;100446.16;6190371;23;20314;-86
2022/08/16 02:01:11;;;;;;;16.20;11.50;;;;;;;17.86;85.53;100451.31;6216868;23;20032;-86
2022/08/16 02:03:37;;;;;;;17.07;11.37;;;;;;;17.83;85.67;100454.59;6190835;23;20032;-86
2022/08/16 02:06:03;;;;;;;16.35;11.43;;;;;;;17.81;85.76;100451.31;6166484;23;20004;-86
2022/08/16 02:08:28;;;;;;;16.77;12.03;;;;;;;17.76;86.08;100446.66;6216805;23;20011;-86
2022/08/16 02:10:54;;;;;;;17.02;12.10;;;;;;;17.72;86.14;100451.03;6165288;23;20423;-86
2022/08/16 02:13:20;;;;;;;15.93;12.60;;;;;;;17.63;86.80;100458.16;6190123;23;20013;-87
2022/08/16 02:15:46;;;;;;;17.15;12.68;;;;;;;17.57;87.00;100457.34;6165445;23;20012;-87
2022/08/16 02:18:12;;;;;;;17.70;12.73;;;;;;;17.51;87.06;100447.44;6165273;23;20008;-86
2022/08/16 02:20:40;;;;;;;19.50;13.43;;;;;;;17.48;87.64;100458.94;6189940;23;20323;-86
2022/08/16 02:23:06;;;;;;;17.97;13.20;;;;;;;17.43;87.72;100450.72;6190336;23;20012;-86
2022/08/16 02:25:37;;;;;;;18.23;13.38;;;;;;;17.40;88.11;100448.50;6190761;23;20296;-86
2022/08/16 02:28:03;;;;;;;21.15;13.50;;;;;;;17.34;88.36;100453.97;6190168;23;20004;-86
2022/08/16 02:30:30;;;;;;;17.93;14.23;;;;;;;17.34;88.78;100453.97;6216186;23;20007;-86
2022/08/16 02:32:56;;;;;;;17.05;13.07;;;;;;;17.31;88.86;100445.47;6189922;23;20339;-87
2022/08/16 02:35:23;;;;;;;18.92;13.63;;;;;;;17.31;89.13;100448.22;6189884;23;20415;-86
2022/08/16 02:37:48;;;;;;;20.00;14.13;;;;;;;17.27;89.23;100450.69;6189506;23;20080;-86
2022/08/16 02:40:16;;;;;;;17.90;13.23;;;;;;;17.25;89.56;100446.56;6189840;23;20455;-86
2022/08/16 02:42:44;;;;;;;18.60;14.00;;;;;;;17.22;89.37;100447.91;6190122;23;20009;-86
2022/08/16 02:45:10;;;;;;;20.40;14.65;;;;;;;17.16;89.75;100444.34;6190134;23;20005;-87
2022/08/16 02:47:36;;;;;;;18.03;14.20;;;;;;;17.18;90.35;100449.53;6189742;23;20372;-86
2022/08/16 02:50:05;;;;;;;18.40;14.07;;;;;;;17.13;90.42;100444.88;6189295;23;20232;-86
2022/08/16 02:52:31;;;;;;;21.38;14.25;;;;;;;17.13;90.67;100439.38;6189677;23;20083;-86
2022/08/16 02:54:56;;;;;;;19.50;14.13;;;;;;;17.09;91.33;100434.72;6189781;23;20043;-86
2022/08/16 02:57:22;;;;;;;18.25;14.45;;;;;;;17.08;91.38;100441.28;6189654;23;20004;-87
2022/08/16 02:59:47;;;;;;;22.10;14.40;;;;;;;17.04;91.20;100438.28;6189517;23;20028;-86
2022/08/16 03:02:13;;;;;;;17.17;14.52;;;;;;;17.01;91.69;100439.63;6164858;23;20005;-86
2022/08/16 03:04:39;;;;;;;18.80;14.83;;;;;;;16.96;92.09;100433.28;6189631;23;20004;-87
2022/08/16 03:07:05;;;;;;;20.47;14.50;;;;;;;16.93;92.33;100433.84;6216386;23;20004;-87
2022/08/16 03:09:31;;;;;;;22.90;14.85;;;;;;;16.91;92.42;100436.84;6164429;23;20461;-86
2022/08/16 03:11:57;;;;;;;19.23;14.63;;;;;;;16.91;92.65;100439.59;6189880;23;20004;-86
2022/08/16 03:14:22;;;;;;;20.20;14.13;;;;;;;16.89;92.55;100430.81;6189082;23;20009;-86
2022/08/16 03:16:48;;;;;;;18.40;14.35;;;;;;;16.89;92.68;100430.81;6164752;23;20017;-86
2022/08/16 03:19:16;;;;;;;18.87;14.13;;;;;;;16.87;92.70;100429.41;6165781;23;20091;-86
2022/08/16 03:21:41;;;;;;;18.15;14.43;;;;;;;16.86;92.88;100431.31;6189908;23;20012;-86
2022/08/16 03:24:08;;;;;;;20.60;14.03;;;;;;;16.83;93.10;100431.88;6190725;23;20009;-86
2022/08/16 03:26:33;;;;;;;20.83;14.60;;;;;;;16.80;nan;100429.63;6189960;23;20450;-86
2022/08/16 03:28:59;;;;;;;19.37;14.70;;;;;;;16.79;93.42;100428.81;6189317;23;20005;-86
2022/08/16 03:31:24;;;;;;;23.33;15.27;;;;;;;16.78;93.52;100431.81;6215559;23;20012;-86
2022/08/16 03:33:50;;;;;;;22.90;15.17;;;;;;;16.77;93.60;100439.22;6189598;23;20426;-86
2022/08/16 03:36:16;;;;;;;22.50;16.37;;;;;;;16.71;93.91;100434.81;6189207;23;20008;-86
2022/08/16 03:38:41;;;;;;;18.23;14.88;;;;;;;16.71;94.04;100440.31;6191203;23;20382;-86
2022/08/16 03:41:08;;;;;;;19.63;15.13;;;;;;;16.67;93.98;100440.00;6191742;23;20020;-86
2022/08/16 03:43:34;;;;;;;19.88;15.15;;;;;;;16.66;94.34;100440.25;6191831;23;20039;-86
2022/08/16 03:46:00;;;;;;;20.90;15.55;;;;;;;16.64;94.65;100446.00;6217907;23;20004;-86
2022/08/16 03:48:37;;;;;;;25.00;16.25;;;;;;;16.63;94.84;100447.09;6192378;23;20009;-86
2022/08/16 03:51:07;;;;;;;22.40;15.73;;;;;;;16.65;94.94;100446.81;6192240;23;20011;-86
2022/08/16 03:53:33;;;;;;;20.42;15.55;;;;;;;16.63;95.19;100452.56;6190979;23;20000;-86
2022/08/16 03:55:59;;;;;;;25.08;16.38;;;;;;;16.65;95.04;100458.63;6191155;23;20005;-87
2022/08/16 03:58:24;;;;;;;21.47;16.47;;;;;;;16.63;95.21;100452.56;6192249;23;20012;-86
2022/08/16 04:00:50;;;;;;;23.77;16.13;;;;;;;16.67;95.47;100459.16;6191581;23;20439;-86
2022/08/16 04:03:16;;;;;;;26.60;17.67;;;;;;;16.66;95.85;100462.19;6218010;23;20004;-86
2022/08/16 04:05:46;;;;;;;26.98;17.60;;;;;;;16.65;96.34;100460.50;6191340;23;20009;-86
2022/08/16 04:08:12;;;;;;;22.92;17.55;;;;;;;16.64;96.20;100465.19;6217968;23;20008;-86
2022/08/16 04:10:38;;;;;;;21.30;16.58;;;;;;;16.63;96.17;100473.66;6166489;23;20009;-86
2022/08/16 04:13:04;;;;;;;22.83;17.40;;;;;;;16.63;96.26;100465.44;6191012;23;20009;-86
2022/08/16 04:15:29;;;;;;;26.93;18.00;;;;;;;16.61;96.30;100475.84;6191922;23;20084;-86
2022/08/16 04:17:56;;;;;;;27.77;18.93;;;;;;;16.57;96.61;100470.06;6191162;23;20304;-86
2022/08/16 04:20:25;;;;;;;26.58;18.25;;;;;;;16.58;97.00;100476.34;6191138;23;20004;-87
2022/08/16 04:22:51;;;;;;;23.35;17.98;;;;;;;16.57;97.46;100475.53;6191184;23;20063;-86
2022/08/16 04:25:18;;;;;;;26.50;18.00;;;;;;;16.58;97.41;100468.97;6191527;23;20083;-86
2022/08/16 04:27:43;;;;;;;24.92;18.58;;;;;;;16.61;97.48;100475.84;6190740;23;20011;-87
2022/08/16 04:30:12;;;;;;;24.00;18.00;;;;;;;16.62;97.68;100477.47;6191811;23;20083;-86
2022/08/16 04:32:39;;;;;;;25.80;18.67;;;;;;;16.62;97.64;100478.31;6217706;23;20012;-86
2022/08/16 04:35:07;;;;;;;26.77;18.17;;;;;;;16.64;97.55;100478.88;6190597;23;20063;-86
2022/08/16 04:37:37;;;;;;;29.48;18.88;;;;;;;16.68;97.70;100479.16;6191281;23;20353;-87
2022/08/16 04:40:09;;;;;;;28.20;19.52;;;;;;;16.70;97.69;100471.50;6166866;23;20316;-86
2022/08/16 04:42:38;;;;;;;30.15;19.85;;;;;;;16.74;97.42;100472.63;6217981;23;20013;-86
2022/08/16 04:45:05;;;;;;;26.88;19.02;;;;;;;16.80;97.46;100478.94;6191322;23;20434;-86
2022/08/16 04:47:31;;;;;;;28.07;18.53;;;;;;;16.79;97.17;100486.34;6190841;23;20036;-86
2022/08/16 04:49:56;;;;;;;27.98;19.83;;;;;;;16.81;97.02;100478.69;6190689;23;20004;-86
2022/08/16 04:52:22;;;;;;;29.30;18.30;;;;;;;16.83;97.03;100483.91;6190971;23;20012;-87
2022/08/16 04:54:47;;;;;;;24.77;18.63;;;;;;;16.86;96.78;100483.38;6190466;23;20040;-86
2022/08/16 04:57:13;;;;;;;30.40;19.17;;;;;;;16.91;96.77;100483.44;6191556;23;20007;-86
2022/08/16 04:59:39;;;;;;;26.20;19.17;;;;;;;16.95;96.46;100487.28;6191572;23;20395;-86
2022/08/16 05:02:04;;;;;;;28.33;19.83;;;;;;;17.00;96.49;100491.97;6191432;23;20300;-86
2022/08/16 05:04:30;;;;;;;25.77;19.23;;;;;;;17.04;95.88;100487.59;6190793;23;20346;-86
2022/08/16 05:06:57;;;;;;;27.77;19.80;;;;;;;17.10;95.61;100491.19;6191318;23;20012;-86
2022/08/16 05:09:23;;;;;;;28.92;18.60;;;;;;;17.11;95.55;100488.19;6142453;23;20016;-86
2022/08/16 05:11:48;;;;;;;24.67;19.20;;;;;;;17.15;95.18;100493.94;6190974;23;20374;-85
2022/08/16 05:14:14;;;;;;;24.37;19.27;;;;;;;17.19;95.21;100495.88;6165905;23;20043;-86
2022/08/16 05:16:40;;;;;;;26.02;19.75;;;;;;;17.19;94.89;100498.63;6216920;23;20397;-86
2022/08/16 05:19:08;;;;;;;25.10;19.00;;;;;;;17.22;95.02;100502.75;6190502;23;20016;-86
2022/08/16 05:21:34;;;;;;;27.70;19.60;;;;;;;17.25;94.59;100499.47;6190844;23;20035;-92
2022/08/16 05:24:00;;;;;;;24.38;18.85;;;;;;;17.29;94.32;100508.00;6192085;23;20000;-92
2022/08/16 05:26:28;;;;;;;23.88;19.17;;;;;;;17.36;94.16;100509.38;6167298;23;20054;-93
2022/08/16 05:28:55;;;;;;;26.93;20.37;;;;;;;17.38;93.91;100511.00;6191781;23;20398;-93
2022/08/16 05:31:20;;;;;;;27.63;19.45;;;;;;;17.40;93.35;100509.66;6192381;23;20312;-94
2022/08/16 05:33:46;;;;;;;27.13;19.83;;;;;;;17.46;92.90;100516.00;6166934;23;20039;-93
2022/08/16 05:36:12;;;;;;;23.70;18.67;;;;;;;17.49;92.60;100516.28;6142854;23;20017;-93
2022/08/16 05:38:37;;;;;;;26.97;18.67;;;;;;;17.57;92.17;100519.56;6167577;23;20015;-94
2022/08/16 05:41:03;;;;;;;25.33;18.50;;;;;;;17.62;91.92;100525.09;6166741;23;20056;-96
2022/08/16 05:43:29;;;;;;;26.57;18.43;;;;;;;17.63;91.72;100521.25;6167794;23;20054;-95
2022/08/16 05:45:56;;;;;;;29.27;18.98;;;;;;;17.65;91.56;100525.38;6167840;23;20012;-96
2022/08/16 05:48:21;;;;;;;29.20;19.07;;;;;;;17.71;90.63;100535.25;6167688;23;20488;-94
2022/08/16 05:50:46;;;;;;;22.27;17.35;;;;;;;17.77;90.38;100521.56;6167174;23;20068;-95
2022/08/16 05:53:12;;;;;;;24.33;17.40;;;;;;;17.82;90.21;100530.63;6191599;23;20016;-93
2022/08/16 05:55:37;;;;;;;36.10;18.20;;;;;;;17.86;90.30;100529.00;6191407;23;20047;-95
2022/08/16 05:58:03;;;;;;;26.23;18.17;;;;;;;17.90;89.59;100525.72;6191321;23;20005;-93
2022/08/16 06:00:28;;;;;;;26.00;17.47;;;;;;;17.94;88.93;100529.56;6190664;23;20315;-90
2022/08/16 06:02:56;;;;;;;23.93;17.30;;;;;;;17.94;88.65;100538.63;6166759;23;20147;-91
2022/08/16 06:05:21;;;;;;;26.38;17.63;;;;;;;17.93;89.07;100538.91;6191697;23;20016;-91
2022/08/16 06:07:47;;;;;;;21.83;17.40;;;;;;;17.98;89.25;100541.66;6166326;23;20423;-91
2022/08/16 06:10:12;;;;;;;29.97;17.93;;;;;;;18.02;88.58;100542.75;6191861;23;20334;-90
2022/08/16 06:12:39;;;;;;;28.70;17.57;;;;;;;18.07;87.91;100537.28;6217175;23;20240;-91
2022/08/16 06:15:11;;;;;;;26.13;18.52;;;;;;;18.15;87.52;100544.16;6191018;23;20004;-91
2022/08/16 06:17:37;;;;;;;22.90;18.20;;;;;;;18.17;87.34;100544.69;6191291;23;20034;-91
2022/08/16 06:20:04;;;;;;;22.45;17.92;;;;;;;18.27;87.25;100552.13;6190334;23;20015;-90
2022/08/16 06:22:30;;;;;;;26.70;17.50;;;;;;;18.32;86.90;100547.44;6217299;23;20005;-91
2022/08/16 06:24:55;;;;;;;23.75;18.17;;;;;;;18.38;86.32;100540.84;6190712;23;20034;-91
2022/08/16 06:27:21;;;;;;;21.80;16.97;;;;;;;18.48;85.68;100550.19;6217352;23;20015;-91
2022/08/16 06:29:46;;;;;;;20.77;16.70;;;;;;;18.54;85.09;100551.81;6216631;23;20055;-91
2022/08/16 06:32:12;;;;;;;21.35;16.13;;;;;;;18.62;84.81;100559.50;6190955;23;20072;-91
2022/08/16 06:34:37;;;;;;;24.37;17.20;;;;;;;18.71;84.34;100554.28;6190912;23;20373;-88
2022/08/16 06:37:03;;;;;;;24.00;18.33;;;;;;;18.81;83.17;100561.66;6217234;23;20011;-92
2022/08/16 06:39:29;;;;;;;20.80;16.42;;;;;;;18.88;83.10;100563.09;6190526;23;20009;-92
2022/08/16 06:41:54;;;;;;;22.67;17.67;;;;;;;18.95;82.82;100557.28;6190933;23;20037;-92
2022/08/16 06:44:20;;;;;;;25.77;17.55;;;;;;;19.01;82.26;100553.41;6191100;23;20028;-94
2022/08/16 06:46:45;;;;;;;29.83;17.13;;;;;;;19.05;81.43;100559.19;6190779;23;20008;-94
2022/08/16 06:49:11;;;;;;;20.83;16.67;;;;;;;19.11;81.71;100561.63;6166037;23;20331;-95
2022/08/16 06:51:38;;;;;;;24.52;17.00;;;;;;;19.22;81.01;100564.34;6166225;23;20009;-94
2022/08/16 06:54:05;;;;;;;22.85;15.32;;;;;;;19.31;80.39;100564.59;6217749;23;20013;-94
2022/08/16 06:56:30;;;;;;;20.00;16.70;;;;;;;19.39;80.05;100567.59;6191523;23;20005;-94
2022/08/16 06:58:59;;;;;;;24.43;17.27;;;;;;;19.46;79.70;100562.59;6166231;23;20012;-94
2022/08/16 07:01:25;;;;;;;23.23;16.70;;;;;;;19.55;79.29;100556.53;6190642;23;20012;-94
2022/08/16 07:03:51;;;;;;;18.40;15.93;;;;;;;19.64;79.03;100565.84;6191340;23;20315;-95
2022/08/16 07:06:18;;;;;;;21.60;16.67;;;;;;;19.72;78.10;100565.22;6191226;23;20008;-95
2022/08/16 07:08:45;;;;;;;21.40;17.13;;;;;;;19.75;77.79;100574.84;6191944;23;20008;-95
2022/08/16 07:11:11;;;;;;;25.15;17.00;;;;;;;19.79;78.07;100567.72;6217402;23;20431;-96
2022/08/16 07:13:36;;;;;;;20.58;16.48;;;;;;;19.86;77.90;100568.22;6217732;23;20012;-95
2022/08/16 07:16:04;;;;;;;23.13;17.10;;;;;;;19.93;77.68;100578.91;6167312;23;20106;-95
2022/08/16 07:18:30;;;;;;;17.77;15.77;;;;;;;20.02;77.16;100570.84;6191607;23;20017;-93
2022/08/16 07:20:57;;;;;;;22.83;15.90;;;;;;;20.13;77.06;100588.97;6191761;23;20082;-95
2022/08/16 07:23:26;;;;;;;18.73;16.20;;;;;;;20.22;76.27;100578.16;6166992;23;20012;-95
2022/08/16 07:25:54;;;;;;;22.63;16.38;;;;;;;20.27;75.48;100581.72;6217895;23;20039;-94
2022/08/16 07:28:19;;;;;;;20.45;16.50;;;;;;;20.31;75.47;100584.69;6190541;23;20011;-91
2022/08/16 07:30:46;;;;;;;25.23;17.40;;;;;;;20.32;75.33;100589.91;6190109;23;20009;-91
2022/08/16 07:33:13;;;;;;;22.70;17.08;;;;;;;20.35;75.31;100585.78;6217281;23;20017;-92
2022/08/16 07:35:40;;;;;;;21.20;16.70;;;;;;;20.44;75.34;100584.03;6190345;23;20011;-92
2022/08/16 07:38:08;;;;;;;23.55;17.40;;;;;;;20.47;74.89;100588.97;6217176;23;20047;-92
2022/08/16 07:40:34;;;;;;;21.63;16.02;;;;;;;20.57;75.56;100590.03;6216812;23;20485;-91
2022/08/16 07:43:00;;;;;;;24.40;16.77;;;;;;;20.63;74.14;100592.44;6216824;23;20013;-91
2022/08/16 07:45:26;;;;;;;24.55;17.10;;;;;;;20.71;73.89;100598.47;6141453;23;20300;-92
2022/08/16 07:47:51;;;;;;;23.83;16.50;;;;;;;20.70;73.32;100603.16;6166583;23;20062;-91
2022/08/16 07:50:17;;;;;;;24.05;15.50;;;;;;;20.78;73.72;100601.72;6165716;23;20142;-92
2022/08/16 07:52:44;;;;;;;22.17;15.97;;;;;;;20.83;73.58;100605.25;6190196;23;20013;-92
2022/08/16 07:55:12;;;;;;;21.05;16.05;;;;;;;20.87;72.68;100602.72;6190644;23;20009;-89
2022/08/16 07:57:39;;;;;;;20.88;16.48;;;;;;;20.87;71.43;100602.72;6216231;23;20095;-92
2022/08/16 08:00:06;;;;;;;23.10;15.20;;;;;;;20.94;70.82;100610.66;6189785;23;20004;-88
2022/08/16 08:02:31;;;;;;;21.92;15.13;;;;;;;21.03;70.85;100608.91;6164615;23;20449;-88
2022/08/16 08:04:57;;;;;;;21.20;14.70;;;;;;;21.10;70.38;100608.56;6164826;23;20013;-88
2022/08/16 08:07:23;;;;;;;19.53;14.83;;;;;;;21.18;70.15;100608.72;6215933;23;20312;-87
2022/08/16 08:09:48;;;;;;;22.88;15.40;;;;;;;21.24;69.14;100606.75;6164772;23;20094;-90
2022/08/16 08:12:14;;;;;;;27.93;15.40;;;;;;;21.34;68.71;100614.09;6164504;23;20043;-89
2022/08/16 08:14:39;;;;;;;17.20;13.77;;;;;;;21.44;68.63;100613.97;6164943;23;20011;-89
2022/08/16 08:17:06;;;;;;;19.33;13.67;;;;;;;21.54;67.41;100618.59;6165241;23;20013;-89
2022/08/16 08:19:34;;;;;;;18.05;13.20;;;;;;;21.62;66.54;100617.09;6165100;23;20009;-89
2022/08/16 08:22:00;;;;;;;15.20;12.38;;;;;;;21.73;66.11;100621.34;6165132;23;20012;-91
2022/08/16 08:24:26;;;;;;;15.97;12.03;;;;;;;21.81;64.50;100620.72;6167441;23;20030;-90
2022/08/16 08:26:53;;;;;;;13.95;11.80;;;;;;;21.90;64.90;100616.16;6218078;23;20005;-89
2022/08/16 08:29:19;;;;;;;14.55;11.57;;;;;;;21.97;63.79;100620.47;6191747;23;20019;-89
2022/08/16 08:31:44;;;;;;;21.33;11.37;;;;;;;22.06;64.33;100621.47;6165701;23;20012;-89
2022/08/16 08:34:10;;;;;;;19.23;12.07;;;;;;;22.18;63.87;100618.28;6189395;23;20009;-89
2022/08/16 08:36:35;;;;;;;18.53;11.90;;;;;;;22.28;63.45;100612.59;6189576;23;20423;-90
2022/08/16 08:39:03;;;;;;;20.10;12.00;;;;;;;22.39;63.94;100618.81;6189798;23;20032;-90
2022/08/16 08:41:29;;;;;;;19.83;12.48;;;;;;;22.52;62.68;100620.78;6215912;23;20008;-91
2022/08/16 08:43:56;;;;;;;15.20;11.60;;;;;;;22.61;62.74;100615.41;6189504;23;20304;-91
2022/08/16 08:46:23;;;;;;;15.63;10.98;;;;;;;22.64;60.36;100619.50;6214789;23;20095;-89
2022/08/16 08:48:50;;;;;;;14.02;10.55;;;;;;;22.70;59.78;100627.41;6189378;23;20011;-90
2022/08/16 08:51:17;;;;;;;10.60;9.50;;;;;;;22.76;59.91;100626.22;6190280;23;20055;-90
2022/08/16 08:53:43;;;;;;;16.45;9.77;;;;;;;22.86;59.03;100624.38;6165539;23;20032;-91
2022/08/16 08:56:09;;;;;;;14.65;10.60;;;;;;;22.94;58.97;100626.44;6189033;23;20004;-91
2022/08/16 08:58:36;;;;;;;14.23;10.63;;;;;;;23.03;58.32;100621.03;6215360;23;20010;-90
2022/08/16 09:01:04;;;;;;;18.43;10.73;;;;;;;23.12;57.60;100627.53;6164488;23;20036;-89
2022/08/16 09:03:29;;;;;;;14.63;10.20;;;;;;;23.18;57.71;100629.09;6188936;23;20075;-90
2022/08/16 09:05:54;;;;;;;16.60;10.83;;;;;;;23.28;57.26;100628.06;6188980;23;20044;-90
2022/08/16 09:08:20;;;;;;;15.35;11.00;;;;;;;23.36;57.56;100632.06;6163928;23;20005;-87
2022/08/16 09:10:45;;;;;;;14.90;10.17;;;;;;;23.43;57.45;100636.06;6189271;23;20514;-88
2022/08/16 09:13:12;;;;;;;13.97;9.53;;;;;;;23.53;57.03;100636.97;6164331;23;20426;-88
2022/08/16 09:15:38;;;;;;;11.77;8.75;;;;;;;23.60;54.47;100640.97;6188643;23;20442;-88
2022/08/16 09:18:04;;;;;;;13.68;8.10;;;;;;;23.62;54.28;100635.97;6215582;23;20035;-88
2022/08/16 09:20:32;;;;;;;10.73;8.40;;;;;;;23.63;53.76;100647.84;6164778;23;20415;-88
2022/08/16 09:23:02;;;;;;;12.88;7.28;;;;;;;23.70;52.91;100659.34;6139800;23;20020;-88
2022/08/16 09:25:27;;;;;;;12.15;8.40;;;;;;;23.76;52.88;100643.44;6215467;23;20011;-88
2022/08/16 09:27:53;;;;;;;9.97;7.93;;;;;;;23.86;53.10;100643.25;6164984;23;20016;-89
2022/08/16 09:30:19;;;;;;;17.80;9.37;;;;;;;24.03;53.49;100650.09;6188856;23;20079;-88
2022/08/16 09:32:45;;;;;;;17.75;8.93;;;;;;;24.23;53.06;100640.50;6130126;23;1290087;-88
2022/08/16 09:35:10;;;;;;;10.90;8.07;;;;;;;24.43;53.16;100636.41;6160160;23;20405;-88
2022/08/16 09:37:36;;;;;;;11.63;8.63;;;;;;;24.62;52.04;100650.94;6160599;23;20255;-89
2022/08/16 09:40:02;;;;;;;12.77;8.47;;;;;;;24.75;50.95;100645.66;6186982;23;20135;-88
2022/08/16 09:42:28;;;;;;;10.80;7.55;;;;;;;24.91;50.57;100646.91;6160929;23;20020;-88
2022/08/16 09:44:54;;;;;;;13.45;7.28;;;;;;;25.15;49.70;100635.41;6185478;23;20088;-89
2022/08/16 09:47:21;;;;;;;10.70;6.63;;;;;;;25.46;49.31;100644.91;6135975;23;20033;-88
2022/08/16 09:49:46;;;;;;;9.45;7.13;;;;;;;25.50;47.67;100648.69;6160567;23;20012;-89
2022/08/16 09:52:11;;;;;;;13.00;6.60;;;;;;;25.56;48.46;100639.88;6185425;23;20009;-88
2022/08/16 09:54:39;;;;;;;7.10;6.40;;;;;;;25.69;46.99;100640.06;6160416;23;20017;-88
2022/08/16 09:57:06;;;;;;;8.88;6.70;;;;;;;25.84;46.35;100639.59;6161092;23;20017;-88
2022/08/16 09:59:31;;;;;;;9.00;5.80;;;;;;;26.13;46.10;100643.78;6161111;23;20039;-89
2022/08/16 10:01:57;;;;;;;11.00;6.03;;;;;;;26.32;44.98;100631.50;6186687;23;20004;-88
2022/08/16 10:04:25;;;;;;;9.57;6.07;;;;;;;26.43;44.60;100653.09;6187109;23;20424;-89
2022/08/16 10:06:53;;;;;;;11.87;5.03;;;;;;;26.50;42.90;100640.66;6185803;23;20036;-89
2022/08/16 10:09:18;;;;;;;9.13;5.43;;;;;;;26.47;42.83;100638.53;6186845;23;20005;-89
2022/08/16 10:14:29;;;;;;;8.60;5.53;;;;;;;26.52;43.65;100641.97;6206978;23;20108;-92
2022/08/16 10:16:57;;;;;;;8.38;5.57;;;;;;;26.77;41.30;100640.31;6160764;23;20012;-91
2022/08/16 10:19:23;;;;;;;6.45;5.20;;;;;;;26.82;40.78;100644.09;6185719;23;20048;-90
2022/08/16 10:21:49;;;;;;;7.03;5.40;;;;;;;26.79;40.51;100651.13;6186611;23;20005;-86
2022/08/16 10:24:14;;;;;;;7.00;5.27;;;;;;;26.93;40.83;100635.03;6159806;23;20020;-88
2022/08/16 10:26:40;;;;;;;9.03;5.47;;;;;;;27.22;40.18;100638.22;6186601;23;20292;-89
2022/08/16 10:29:08;;;;;;;9.30;4.90;;;;;;;27.51;41.04;100645.03;6160118;23;20017;-89
2022/08/16 10:31:34;;;;;;;11.82;5.47;;;;;;;27.75;40.36;100639.63;6161307;23;20013;-87
2022/08/16 10:34:02;;;;;;;8.33;5.40;;;;;;;27.91;39.49;100639.03;6189644;23;20148;-89
2022/08/16 10:36:28;;;;;;;9.52;5.10;;;;;;;28.08;38.91;100644.53;6190159;23;20017;-89
2022/08/16 10:38:53;;;;;;;5.40;4.90;;;;;;;28.23;38.21;100639.47;6189604;23;20004;-89
2022/08/16 10:41:19;;;;;;;5.67;4.60;;;;;;;28.40;37.27;100649.69;6190022;23;20058;-88
2022/08/16 10:43:46;;;;;;;10.23;5.30;;;;;;;28.22;37.54;100649.84;6189733;23;20015;-89
2022/08/16 10:46:16;;;;;;;7.50;5.13;;;;;;;28.00;37.18;100650.97;6189380;23;20005;-89
2022/08/16 10:48:43;;;;;;;11.18;5.00;;;;;;;28.13;37.54;100651.88;6189396;23;20015;-89
2022/08/16 10:51:09;;;;;;;9.97;4.87;;;;;;;28.31;38.05;100638.59;6190608;23;20340;-89
2022/08/16 10:53:40;;;;;;;8.65;5.13;;;;;;;28.51;36.64;100640.56;6189788;23;20016;-88
2022/08/16 10:56:09;;;;;;;8.57;4.60;;;;;;;28.53;37.07;100641.03;6189690;23;20005;-89
2022/08/16 10:58:35;;;;;;;6.78;5.68;;;;;;;28.72;37.70;100642.53;6189812;23;20021;-88
2022/08/16 11:01:04;;;;;;;11.73;5.63;;;;;;;28.80;36.95;100658.34;6189536;23;20311;-89
2022/08/16 11:03:29;;;;;;;11.33;5.53;;;;;;;28.70;37.42;100648.44;6189571;23;20083;-88
2022/08/16 11:05:55;;;;;;;7.57;5.20;;;;;;;28.90;36.05;100654.31;6189467;23;20086;-89
2022/08/16 11:08:21;;;;;;;7.60;5.23;;;;;;;29.11;36.58;100657.03;6190639;23;20004;-89
2022/08/16 11:10:50;;;;;;;8.25;5.47;;;;;;;29.36;34.94;100662.69;6189543;23;20011;-89